Time;durP1;ratioP1;P1;durP2;ratioP2;P2;SDS_P1;SDS_P2;PMS_P1;PMS_P2;Temp;Humidity;BMP_temperature;BMP_pressure;BME280_temperature;BME280_humidity;BME280_pressure;Samples;Min_cycle;Max_cycle;Signal;HPM_P1;HPM_P2
2023/09/01 00:01:41;;;;;;;10.95;6.72;;;11.40;99.90;;;;;;4933112;28;20570;-78
2023/09/01 00:04:06;;;;;;;10.10;5.53;;;11.30;99.90;;;;;;4919366;28;20042;-78
2023/09/01 00:06:32;;;;;;;9.18;6.28;;;11.20;99.90;;;;;;4915852;29;20515;-78
2023/09/01 00:08:57;;;;;;;10.60;7.22;;;11.10;99.90;;;;;;4931355;28;20039;-77
2023/09/01 00:11:23;;;;;;;8.93;7.10;;;11.00;99.90;;;;;;4950113;28;20089;-77
2023/09/01 00:13:48;;;;;;;9.35;6.90;;;11.00;99.90;;;;;;4948423;28;20094;-78
2023/09/01 00:16:14;;;;;;;9.73;6.78;;;10.90;99.90;;;;;;4945669;28;20047;-77
2023/09/01 00:18:40;;;;;;;12.70;7.97;;;10.90;99.90;;;;;;4926959;28;20431;-77
2023/09/01 00:21:05;;;;;;;14.93;7.45;;;10.90;99.90;;;;;;4919746;29;20470;-78
2023/09/01 00:23:31;;;;;;;9.35;7.47;;;10.80;99.90;;;;;;4925669;28;20411;-77
2023/09/01 00:25:59;;;;;;;9.90;6.25;;;10.90;99.90;;;;;;4932391;28;20448;-77
2023/09/01 00:28:25;;;;;;;9.80;6.38;;;10.80;99.90;;;;;;4923902;28;20253;-77
2023/09/01 00:30:51;;;;;;;10.02;5.40;;;10.80;99.90;;;;;;4920864;28;20063;-78
2023/09/01 00:33:17;;;;;;;8.35;4.93;;;10.90;99.90;;;;;;4932218;28;20027;-78
2023/09/01 00:35:43;;;;;;;8.80;6.88;;;11.00;99.90;;;;;;4925869;28;20037;-77
2023/09/01 00:38:08;;;;;;;11.85;6.82;;;10.90;99.90;;;;;;4933419;28;20117;-77
2023/09/01 00:40:34;;;;;;;8.38;6.90;;;10.80;99.90;;;;;;4932660;28;20130;-77
2023/09/01 00:42:59;;;;;;;12.82;7.97;;;10.70;99.90;;;;;;4950777;28;20380;-77
2023/09/01 00:45:25;;;;;;;11.55;7.10;;;10.70;99.90;;;;;;4950187;28;20574;-78
2023/09/01 00:47:50;;;;;;;14.77;6.60;;;10.60;99.90;;;;;;4919873;28;20248;-77
2023/09/01 00:50:16;;;;;;;12.05;7.03;;;10.70;99.90;;;;;;4948502;28;20046;-76
2023/09/01 00:52:42;;;;;;;14.82;7.60;;;10.60;99.90;;;;;;4934881;28;20367;-78
2023/09/01 00:55:07;;;;;;;15.52;7.45;;;10.60;99.90;;;;;;4949971;28;20254;-78
2023/09/01 00:57:33;;;;;;;13.23;7.45;;;10.60;99.90;;;;;;4907711;28;20038;-77
2023/09/01 00:59:59;;;;;;;14.90;7.32;;;10.60;99.90;;;;;;4951545;28;20035;-78
2023/09/01 01:02:25;;;;;;;10.88;7.43;;;10.50;99.90;;;;;;4944839;28;20554;-78
2023/09/01 01:04:50;;;;;;;14.55;7.63;;;10.60;99.90;;;;;;4936580;28;20038;-78
2023/09/01 01:07:34;;;;;;;16.05;7.82;;;10.50;99.90;;;;;;4965173;28;20498;-78
2023/09/01 01:10:05;;;;;;;15.25;7.43;;;10.50;99.90;;;;;;4932693;28;20035;-78
2023/09/01 01:12:40;;;;;;;10.27;6.78;;;10.50;99.90;;;;;;4951021;28;20026;-78
2023/09/01 01:15:09;;;;;;;11.52;7.00;;;10.40;99.90;;;;;;4932763;28;20035;-78
2023/09/01 01:17:39;;;;;;;11.25;7.68;;;10.50;99.90;;;;;;4932531;28;20041;-78
2023/09/01 01:20:27;;;;;;;15.63;7.45;;;10.50;99.90;;;;;;4935292;28;20037;-78
2023/09/01 01:23:05;;;;;;;8.95;6.88;;;10.40;99.90;;;;;;4936163;28;20046;-78
2023/09/01 01:25:30;;;;;;;16.42;7.97;;;10.40;99.90;;;;;;4947446;28;20039;-77
2023/09/01 01:28:05;;;;;;;16.52;7.63;;;10.40;99.90;;;;;;4942449;28;20483;-78
2023/09/01 01:30:31;;;;;;;13.20;7.47;;;10.40;99.90;;;;;;4913658;28;20037;-78
2023/09/01 01:32:56;;;;;;;12.75;6.68;;;10.50;99.90;;;;;;4898526;28;20395;-78
2023/09/01 01:35:30;;;;;;;9.85;7.43;;;10.40;99.90;;;;;;4901392;29;20044;-77
2023/09/01 01:38:06;;;;;;;12.45;7.15;;;10.40;99.90;;;;;;4943219;28;20460;-78
2023/09/01 01:40:31;;;;;;;17.92;7.60;;;10.40;99.90;;;;;;4928836;28;20027;-78
2023/09/01 01:43:00;;;;;;;16.20;7.70;;;10.40;99.90;;;;;;4915053;28;20027;-77
2023/09/01 01:45:26;;;;;;;14.73;8.55;;;10.40;99.90;;;;;;4929050;28;20040;-78
2023/09/01 01:47:51;;;;;;;17.83;8.27;;;10.40;99.90;;;;;;4938943;28;20560;-78
2023/09/01 01:50:17;;;;;;;15.10;7.88;;;10.40;99.90;;;;;;4943224;28;20027;-78
2023/09/01 01:52:43;;;;;;;13.32;6.97;;;10.40;99.90;;;;;;4944775;28;20034;-78
2023/09/01 01:55:09;;;;;;;11.43;7.25;;;10.40;99.90;;;;;;4938166;28;20077;-78
2023/09/01 01:57:36;;;;;;;15.82;7.45;;;10.30;99.90;;;;;;4915215;28;20321;-78
2023/09/01 02:00:03;;;;;;;18.52;7.18;;;10.20;99.90;;;;;;4916921;28;20039;-78
2023/09/01 02:02:29;;;;;;;13.68;6.85;;;10.30;99.90;;;;;;4916317;28;20059;-78
2023/09/01 02:04:54;;;;;;;11.65;6.55;;;10.30;99.90;;;;;;4948023;28;20059;-77
2023/09/01 02:07:20;;;;;;;14.93;7.00;;;10.30;99.90;;;;;;4934358;28;20032;-78
2023/09/01 02:09:45;;;;;;;12.43;6.50;;;10.20;99.90;;;;;;4912415;28;20035;-78
2023/09/01 02:12:11;;;;;;;11.55;7.43;;;10.30;99.90;;;;;;4948538;28;20532;-78
2023/09/01 02:14:36;;;;;;;9.82;6.93;;;10.30;99.90;;;;;;4931522;28;20049;-78
2023/09/01 02:17:06;;;;;;;14.85;6.95;;;10.30;99.90;;;;;;4938413;28;20045;-78
2023/09/01 02:19:32;;;;;;;18.15;8.23;;;10.30;99.90;;;;;;4919387;28;20093;-78
2023/09/01 02:21:57;;;;;;;16.50;7.90;;;10.30;99.90;;;;;;4949982;28;20050;-78
2023/09/01 02:24:23;;;;;;;10.98;7.40;;;10.30;99.90;;;;;;4916413;28;20043;-78
2023/09/01 02:26:49;;;;;;;16.77;7.30;;;10.20;99.90;;;;;;4927581;28;20046;-77
2023/09/01 02:29:14;;;;;;;11.13;6.78;;;10.20;99.90;;;;;;4944549;28;20031;-77
2023/09/01 02:31:40;;;;;;;15.20;6.95;;;10.20;99.90;;;;;;4948163;28;20031;-77
2023/09/01 02:34:05;;;;;;;12.68;7.05;;;10.10;99.90;;;;;;4933396;28;20436;-78
2023/09/01 02:36:33;;;;;;;14.18;7.55;;;10.10;99.90;;;;;;4944525;28;20130;-78
2023/09/01 02:38:58;;;;;;;13.30;7.65;;;10.20;99.90;;;;;;4915965;28;20056;-79
2023/09/01 02:41:24;;;;;;;11.70;6.65;;;10.10;99.90;;;;;;4949390;28;20513;-78
2023/09/01 02:43:50;;;;;;;23.38;7.50;;;10.10;99.90;;;;;;4929359;28;20435;-78
2023/09/01 02:46:15;;;;;;;12.70;7.25;;;10.20;99.90;;;;;;4949540;28;20031;-78
2023/09/01 02:48:41;;;;;;;13.77;7.45;;;10.30;99.90;;;;;;4943108;28;20033;-78
2023/09/01 02:51:06;;;;;;;14.55;7.28;;;10.40;99.90;;;;;;4926913;28;20035;-79
2023/09/01 02:53:36;;;;;;;11.30;7.80;;;10.30;99.90;;;;;;4918284;28;20447;-78
2023/09/01 02:56:02;;;;;;;19.33;8.70;;;10.40;99.90;;;;;;4915743;28;20458;-78
2023/09/01 02:58:27;;;;;;;12.40;7.75;;;10.40;99.90;;;;;;4921706;28;20698;-79
2023/09/01 03:00:53;;;;;;;13.75;7.90;;;10.40;99.90;;;;;;4933001;29;20028;-79
2023/09/01 03:03:22;;;;;;;16.05;7.47;;;10.40;99.90;;;;;;4916312;28;20038;-79
2023/09/01 03:05:49;;;;;;;13.55;7.18;;;10.40;99.90;;;;;;4932025;28;20460;-78
2023/09/01 03:08:14;;;;;;;13.38;6.95;;;10.50;99.90;;;;;;4948111;28;20122;-79
2023/09/01 03:10:41;;;;;;;13.75;6.90;;;10.50;99.90;;;;;;4931040;28;20397;-79
2023/09/01 03:13:06;;;;;;;11.45;7.53;;;10.50;99.90;;;;;;4945406;28;20487;-79
2023/09/01 03:15:32;;;;;;;20.40;7.68;;;10.60;99.90;;;;;;4921741;28;20032;-79
2023/09/01 03:17:57;;;;;;;12.77;7.38;;;10.60;99.90;;;;;;4930162;28;20050;-80
2023/09/01 03:20:23;;;;;;;18.83;8.23;;;10.70;99.90;;;;;;4920683;28;20553;-78
2023/09/01 03:22:49;;;;;;;15.13;8.60;;;10.80;99.90;;;;;;4936402;28;20620;-79
2023/09/01 03:25:15;;;;;;;18.85;8.27;;;10.80;99.90;;;;;;4961036;28;20060;-79
2023/09/01 03:27:40;;;;;;;14.20;8.45;;;10.90;99.90;;;;;;4939180;28;20031;-78
2023/09/01 03:30:07;;;;;;;16.75;8.65;;;10.90;99.90;;;;;;4920984;28;20044;-79
2023/09/01 03:32:33;;;;;;;16.50;9.32;;;10.90;99.90;;;;;;4931267;28;20581;-78
2023/09/01 03:34:59;;;;;;;17.92;8.40;;;11.00;99.90;;;;;;4953950;28;20101;-78
2023/09/01 03:37:24;;;;;;;24.77;8.43;;;11.00;99.90;;;;;;4932928;28;20050;-78
2023/09/01 03:39:50;;;;;;;12.68;8.43;;;11.10;99.90;;;;;;4919408;28;20114;-78
2023/09/01 03:42:16;;;;;;;16.90;8.75;;;11.00;99.90;;;;;;4949501;28;20569;-79
2023/09/01 03:44:41;;;;;;;16.48;8.93;;;11.10;99.90;;;;;;4933510;28;20122;-78
2023/09/01 03:47:08;;;;;;;16.58;9.27;;;11.10;99.90;;;;;;4923732;28;20045;-78
2023/09/01 03:49:34;;;;;;;13.73;9.48;;;11.20;99.90;;;;;;4915687;28;20461;-78
2023/09/01 03:52:00;;;;;;;17.15;9.23;;;11.20;99.90;;;;;;4948831;28;20113;-78
2023/09/01 03:54:26;;;;;;;19.83;9.48;;;11.20;99.90;;;;;;4921604;28;20117;-78
2023/09/01 03:56:51;;;;;;;18.40;10.23;;;11.20;99.90;;;;;;4920418;28;20034;-78
2023/09/01 03:59:18;;;;;;;19.08;9.35;;;11.20;99.90;;;;;;4950443;28;20046;-78
2023/09/01 04:01:44;;;;;;;14.07;8.57;;;11.30;99.90;;;;;;4954770;28;20085;-78
2023/09/01 04:04:09;;;;;;;18.83;9.00;;;11.30;99.90;;;;;;4939827;28;20043;-77
2023/09/01 04:06:35;;;;;;;21.20;9.80;;;11.30;99.90;;;;;;4933678;28;20523;-78
2023/09/01 04:09:01;;;;;;;20.23;8.93;;;11.40;99.90;;;;;;4950863;28;20742;-78
2023/09/01 04:11:26;;;;;;;14.23;8.27;;;11.40;99.90;;;;;;4913286;28;20039;-78
2023/09/01 04:13:52;;;;;;;15.50;9.25;;;11.40;99.90;;;;;;4933584;28;20027;-78
2023/09/01 04:16:17;;;;;;;18.08;9.05;;;11.40;99.90;;;;;;4917975;28;20023;-78
2023/09/01 04:18:43;;;;;;;14.98;9.15;;;11.60;99.90;;;;;;4894334;29;20376;-78
2023/09/01 04:21:08;;;;;;;17.55;8.90;;;11.50;99.90;;;;;;4930900;28;20039;-79
2023/09/01 04:23:37;;;;;;;15.70;9.20;;;11.50;99.90;;;;;;4922159;28;20029;-78
2023/09/01 04:26:02;;;;;;;12.95;8.75;;;11.40;99.90;;;;;;4950159;28;20031;-78
2023/09/01 04:28:28;;;;;;;20.23;8.43;;;11.50;99.90;;;;;;4949029;28;20070;-77
2023/09/01 04:30:54;;;;;;;16.52;9.02;;;11.40;99.90;;;;;;4921006;28;20446;-78
2023/09/01 04:33:19;;;;;;;17.65;8.88;;;11.50;99.90;;;;;;4948834;28;20030;-78
2023/09/01 04:35:45;;;;;;;12.82;7.35;;;11.40;99.90;;;;;;4950264;28;20413;-78
2023/09/01 04:38:10;;;;;;;15.90;7.50;;;11.40;99.90;;;;;;4930051;28;20175;-78
2023/09/01 04:40:36;;;;;;;12.85;8.82;;;11.40;99.90;;;;;;4898799;28;20035;-79
2023/09/01 04:43:02;;;;;;;14.40;9.30;;;11.50;99.90;;;;;;4917145;28;20046;-78
2023/09/01 04:45:28;;;;;;;12.73;8.75;;;11.40;99.90;;;;;;4920893;28;20035;-79
2023/09/01 04:47:53;;;;;;;14.27;8.50;;;11.40;99.90;;;;;;4915003;28;20240;-78
2023/09/01 04:50:19;;;;;;;16.23;8.52;;;11.40;99.90;;;;;;4914778;29;20054;-77
2023/09/01 04:52:44;;;;;;;17.77;9.35;;;11.50;99.90;;;;;;4919754;28;20156;-78
2023/09/01 04:55:11;;;;;;;20.20;9.48;;;11.50;99.90;;;;;;4932150;28;20035;-79
2023/09/01 04:57:37;;;;;;;18.17;9.13;;;11.50;99.90;;;;;;4922441;28;20140;-78
2023/09/01 05:00:04;;;;;;;22.40;9.13;;;11.50;99.90;;;;;;4945482;28;20055;-78
2023/09/01 05:02:30;;;;;;;17.02;9.15;;;11.60;99.90;;;;;;4934151;28;20053;-78
2023/09/01 05:04:57;;;;;;;15.75;8.85;;;11.60;99.90;;;;;;4933828;28;20028;-78
2023/09/01 05:07:23;;;;;;;17.27;9.25;;;11.60;99.90;;;;;;4911130;28;20035;-78
2023/09/01 05:09:48;;;;;;;12.23;7.75;;;11.50;99.90;;;;;;4899704;28;20043;-77
2023/09/01 05:12:14;;;;;;;10.93;7.82;;;11.60;99.90;;;;;;4914947;28;20146;-78
2023/09/01 05:14:40;;;;;;;10.73;7.13;;;11.70;99.90;;;;;;4917928;28;20081;-78
2023/09/01 05:17:05;;;;;;;16.13;7.75;;;11.60;99.90;;;;;;4904761;28;20039;-77
2023/09/01 05:19:31;;;;;;;12.82;7.82;;;11.70;99.90;;;;;;4931613;28;20086;-77
2023/09/01 05:21:56;;;;;;;10.15;7.28;;;11.80;99.90;;;;;;4933929;28;20047;-78
2023/09/01 05:24:22;;;;;;;14.90;8.82;;;11.80;99.90;;;;;;4929807;28;20045;-78
2023/09/01 05:26:48;;;;;;;11.77;8.23;;;11.90;99.90;;;;;;4917660;29;20043;-77
2023/09/01 05:29:13;;;;;;;11.05;7.53;;;11.90;99.90;;;;;;4940512;28;20037;-78
2023/09/01 05:31:39;;;;;;;14.25;8.00;;;12.00;99.90;;;;;;4951770;28;20034;-78
2023/09/01 05:34:04;;;;;;;10.48;5.90;;;12.10;99.90;;;;;;4944764;28;20019;-78
2023/09/01 05:36:30;;;;;;;8.57;6.47;;;12.20;99.90;;;;;;4967799;28;20054;-78
2023/09/01 05:38:55;;;;;;;8.73;5.75;;;12.20;99.90;;;;;;4932687;28;20033;-78
2023/09/01 05:41:21;;;;;;;9.57;5.47;;;12.30;99.90;;;;;;4929830;28;20043;-78
2023/09/01 05:43:46;;;;;;;5.57;4.88;;;12.30;99.90;;;;;;4915286;28;20027;-78
2023/09/01 05:46:12;;;;;;;10.65;5.50;;;12.40;99.90;;;;;;4917400;28;20031;-78
2023/09/01 05:48:37;;;;;;;11.13;6.47;;;12.40;99.90;;;;;;4918143;28;20575;-78
2023/09/01 05:51:03;;;;;;;9.48;5.53;;;12.50;99.90;;;;;;4909942;28;20038;-77
2023/09/01 05:53:28;;;;;;;9.93;7.07;;;12.60;99.90;;;;;;4933290;28;20035;-78
2023/09/01 05:55:54;;;;;;;12.57;8.02;;;12.50;99.90;;;;;;4916124;29;20016;-78
2023/09/01 05:58:20;;;;;;;16.27;8.52;;;12.70;99.90;;;;;;4898441;28;20050;-78
2023/09/01 06:00:45;;;;;;;14.00;7.50;;;12.80;99.90;;;;;;4947534;28;20023;-79
2023/09/01 06:03:11;;;;;;;11.95;7.57;;;12.80;99.90;;;;;;4945644;28;20137;-79
2023/09/01 06:05:36;;;;;;;12.48;7.40;;;12.90;99.90;;;;;;4952599;28;20038;-79
2023/09/01 06:08:02;;;;;;;13.32;8.98;;;12.90;99.90;;;;;;4935152;28;20039;-80
2023/09/01 06:10:28;;;;;;;13.93;9.95;;;13.00;99.90;;;;;;4934094;28;20030;-79
2023/09/01 06:12:54;;;;;;;17.00;9.98;;;13.00;99.90;;;;;;4948254;28;20043;-79
2023/09/01 06:15:19;;;;;;;17.60;11.82;;;13.10;99.90;;;;;;4903838;28;20090;-79
2023/09/01 06:17:45;;;;;;;15.48;11.68;;;13.20;99.90;;;;;;4927071;28;20034;-79
2023/09/01 06:20:11;;;;;;;18.95;12.73;;;13.30;99.90;;;;;;4932494;28;20049;-79
2023/09/01 06:22:37;;;;;;;23.63;13.30;;;13.40;99.90;;;;;;4929297;28;20066;-79
2023/09/01 06:25:05;;;;;;;18.10;11.68;;;13.60;99.90;;;;;;4949232;28;20038;-79
2023/09/01 06:27:33;;;;;;;15.32;9.70;;;13.60;99.90;;;;;;4951006;28;20039;-78
2023/09/01 06:29:58;;;;;;;12.60;8.43;;;13.70;99.90;;;;;;4926211;28;20039;-79
2023/09/01 06:32:24;;;;;;;16.83;11.10;;;13.80;99.90;;;;;;4916290;28;20070;-79
2023/09/01 06:34:50;;;;;;;12.82;8.73;;;13.80;99.90;;;;;;4936280;28;20055;-79
2023/09/01 06:37:15;;;;;;;7.50;6.10;;;13.90;99.90;;;;;;4929630;28;20062;-79
2023/09/01 06:39:41;;;;;;;10.80;7.28;;;13.90;99.90;;;;;;4932921;28;20035;-79
2023/09/01 06:42:07;;;;;;;16.70;10.65;;;14.00;99.90;;;;;;4929350;28;20046;-78
2023/09/01 06:44:32;;;;;;;20.58;14.13;;;14.10;99.90;;;;;;4959235;28;20522;-78
2023/09/01 06:46:58;;;;;;;20.50;12.70;;;14.10;99.90;;;;;;4948957;28;20059;-78
2023/09/01 06:49:24;;;;;;;22.20;11.70;;;14.30;99.90;;;;;;4950816;28;20043;-78
2023/09/01 06:51:49;;;;;;;25.23;12.63;;;14.30;99.90;;;;;;4951102;28;20414;-78
2023/09/01 06:54:15;;;;;;;19.17;12.43;;;14.50;99.90;;;;;;4945904;28;20065;-78
2023/09/01 06:56:40;;;;;;;21.48;12.00;;;14.50;99.90;;;;;;4931125;28;20030;-78
2023/09/01 06:59:06;;;;;;;19.15;12.52;;;14.60;99.90;;;;;;4953982;28;20384;-78
2023/09/01 07:01:31;;;;;;;14.23;10.35;;;14.70;99.90;;;;;;4948112;28;20027;-80
2023/09/01 07:03:57;;;;;;;11.98;7.80;;;14.70;99.90;;;;;;4952936;28;20035;-80
2023/09/01 07:06:22;;;;;;;13.30;8.05;;;14.80;99.90;;;;;;4942564;28;20047;-79
2023/09/01 07:08:48;;;;;;;12.18;6.25;;;14.80;99.90;;;;;;4937819;28;20089;-80
2023/09/01 07:11:14;;;;;;;10.60;6.47;;;15.00;99.90;;;;;;4909558;28;20027;-80
2023/09/01 07:13:40;;;;;;;10.18;6.57;;;14.90;99.90;;;;;;4947385;28;20510;-80
2023/09/01 07:16:06;;;;;;;7.80;5.53;;;15.00;99.90;;;;;;4940422;28;20023;-78
2023/09/01 07:18:32;;;;;;;9.65;5.97;;;15.10;99.90;;;;;;4942634;28;20031;-81
2023/09/01 07:21:00;;;;;;;6.45;4.80;;;15.20;99.90;;;;;;4939166;28;20033;-78
2023/09/01 07:23:26;;;;;;;8.90;4.50;;;15.40;99.90;;;;;;4930438;28;20036;-79
2023/09/01 07:25:53;;;;;;;7.13;4.80;;;15.40;99.90;;;;;;4929459;28;20035;-78
2023/09/01 07:28:18;;;;;;;5.90;3.45;;;15.50;99.90;;;;;;4934147;28;20545;-78
2023/09/01 07:30:44;;;;;;;8.23;3.90;;;15.50;99.90;;;;;;4944532;28;20024;-78
2023/09/01 07:33:09;;;;;;;6.05;3.33;;;15.60;99.90;;;;;;4936109;28;20086;-78
2023/09/01 07:35:35;;;;;;;6.53;4.45;;;15.60;99.90;;;;;;4928989;28;20035;-78
2023/09/01 07:38:03;;;;;;;5.35;3.20;;;15.70;99.90;;;;;;4933033;28;21440;-79
2023/09/01 07:40:29;;;;;;;3.47;2.78;;;15.70;99.90;;;;;;4949534;28;20035;-80
2023/09/01 07:42:54;;;;;;;6.10;2.38;;;15.80;99.90;;;;;;4931307;28;20046;-80
2023/09/01 07:45:20;;;;;;;4.95;3.97;;;15.90;99.90;;;;;;4950319;28;20035;-79
2023/09/01 07:47:45;;;;;;;4.15;3.00;;;16.10;99.90;;;;;;4922120;28;20114;-78
2023/09/01 07:50:11;;;;;;;3.55;3.17;;;16.20;99.90;;;;;;4939771;28;20039;-78
2023/09/01 07:52:37;;;;;;;4.82;3.22;;;16.40;99.90;;;;;;4943734;28;20043;-79
2023/09/01 07:55:05;;;;;;;4.32;3.28;;;16.30;99.90;;;;;;4933261;28;20074;-79
2023/09/01 07:57:31;;;;;;;2.70;2.13;;;16.40;99.90;;;;;;4949141;28;20385;-79
2023/09/01 07:59:56;;;;;;;2.92;1.73;;;16.70;99.90;;;;;;4949459;28;20322;-79
2023/09/01 08:02:22;;;;;;;3.67;2.83;;;16.50;99.90;;;;;;4939654;28;20038;-79
2023/09/01 08:04:48;;;;;;;3.58;2.35;;;16.50;99.90;;;;;;4938770;28;20057;-79
2023/09/01 08:07:13;;;;;;;6.72;2.40;;;16.60;99.90;;;;;;4924002;28;20039;-79
2023/09/01 08:09:39;;;;;;;4.32;2.20;;;16.70;99.90;;;;;;4952926;28;21289;-79
2023/09/01 08:12:05;;;;;;;2.20;1.70;;;16.70;99.90;;;;;;4939278;28;20108;-79
2023/09/01 08:14:30;;;;;;;3.72;2.08;;;16.80;99.90;;;;;;4936497;28;20085;-79
2023/09/01 08:16:56;;;;;;;5.07;1.90;;;16.80;99.90;;;;;;4932365;28;20402;-79
2023/09/01 08:19:22;;;;;;;4.35;1.40;;;16.90;99.90;;;;;;4906681;28;20054;-79
2023/09/01 08:21:47;;;;;;;5.10;2.00;;;17.10;99.90;;;;;;4931907;28;20073;-79
2023/09/01 08:24:13;;;;;;;1.92;1.40;;;17.20;99.90;;;;;;4947197;28;20093;-80
2023/09/01 08:26:38;;;;;;;3.38;1.30;;;17.20;99.90;;;;;;4922742;28;20032;-79
2023/09/01 08:29:04;;;;;;;2.50;1.67;;;17.20;99.90;;;;;;4936239;28;20046;-79
2023/09/01 08:31:32;;;;;;;2.97;1.85;;;17.20;99.90;;;;;;4919183;28;20059;-78
2023/09/01 08:33:57;;;;;;;1.65;1.27;;;17.30;99.90;;;;;;4935016;28;20043;-78
2023/09/01 08:36:23;;;;;;;2.08;1.40;;;17.30;99.90;;;;;;4938515;28;20462;-79
2023/09/01 08:38:48;;;;;;;3.63;2.22;;;17.30;99.90;;;;;;4951741;28;20380;-79
2023/09/01 08:41:14;;;;;;;3.50;1.20;;;17.40;99.90;;;;;;4930708;28;20024;-79
2023/09/01 08:43:39;;;;;;;1.83;1.30;;;17.60;99.90;;;;;;4919709;28;20147;-79
2023/09/01 08:46:05;;;;;;;4.97;1.58;;;17.70;99.90;;;;;;4928755;28;20038;-78
2023/09/01 08:48:32;;;;;;;1.35;1.25;;;17.70;99.90;;;;;;4948501;28;20035;-78
2023/09/01 08:50:57;;;;;;;2.10;1.20;;;17.90;99.90;;;;;;4948648;28;20494;-78
2023/09/01 08:53:24;;;;;;;2.80;1.40;;;17.80;99.90;;;;;;4922098;28;20058;-78
2023/09/01 08:55:49;;;;;;;1.50;1.23;;;18.00;99.90;;;;;;4921221;28;20221;-79
2023/09/01 08:58:17;;;;;;;2.95;1.65;;;18.30;99.90;;;;;;4935525;28;20778;-78
2023/09/01 09:00:43;;;;;;;1.60;1.50;;;18.30;99.90;;;;;;4933080;29;20483;-78
2023/09/01 09:03:11;;;;;;;1.38;1.25;;;18.20;99.90;;;;;;4951586;28;20039;-78
2023/09/01 09:05:37;;;;;;;2.55;1.60;;;18.40;99.90;;;;;;4940641;28;20676;-78
2023/09/01 09:08:06;;;;;;;2.10;1.40;;;18.30;99.90;;;;;;4936560;28;20026;-77
2023/09/01 09:10:37;;;;;;;1.42;1.27;;;18.30;99.90;;;;;;4934695;28;20035;-78
2023/09/01 09:13:28;;;;;;;1.95;1.10;;;18.00;99.90;;;;;;4932140;28;20027;-78
2023/09/01 09:16:13;;;;;;;3.35;1.00;;;17.80;99.90;;;;;;4947919;28;20031;-78
2023/09/01 09:18:40;;;;;;;1.92;1.33;;;17.70;99.90;;;;;;4919402;28;20047;-81
2023/09/01 09:21:29;;;;;;;3.35;1.20;;;17.60;99.90;;;;;;4929663;28;20380;-79
2023/09/01 09:23:57;;;;;;;2.97;1.20;;;17.60;99.90;;;;;;4931542;28;20027;-79
2023/09/01 09:26:29;;;;;;;3.78;1.30;;;17.50;99.90;;;;;;4933074;28;20023;-80
2023/09/01 09:28:56;;;;;;;1.42;1.20;;;17.40;99.90;;;;;;4953492;28;20034;-79
2023/09/01 09:31:41;;;;;;;1.20;1.00;;;17.30;99.90;;;;;;4938068;28;20158;-79
2023/09/01 09:34:14;;;;;;;1.23;0.95;;;17.20;99.90;;;;;;4922788;28;20982;-80
2023/09/01 09:36:47;;;;;;;3.05;1.90;;;17.20;99.90;;;;;;4948637;28;20118;-79
2023/09/01 09:39:26;;;;;;;2.50;1.10;;;17.10;99.90;;;;;;4935019;28;20368;-79
2023/09/01 09:41:54;;;;;;;4.13;1.60;;;17.10;99.90;;;;;;4937098;28;20053;-79
2023/09/01 09:44:26;;;;;;;1.27;0.90;;;17.00;99.90;;;;;;4917023;28;20098;-80
2023/09/01 09:46:54;;;;;;;2.60;0.90;;;17.00;99.90;;;;;;4921174;29;20036;-79
2023/09/01 09:49:19;;;;;;;2.47;0.90;;;17.00;99.90;;;;;;4931434;28;20447;-80
2023/09/01 09:51:45;;;;;;;0.68;0.68;;;16.90;99.90;;;;;;4921940;29;20035;-80
2023/09/01 09:54:13;;;;;;;3.37;1.30;;;16.90;99.90;;;;;;4239430;28;10000317;-80
2023/09/01 09:56:40;;;;;;;1.27;1.17;;;16.70;99.90;;;;;;4917489;28;20045;-80
2023/09/01 09:59:06;;;;;;;1.10;1.00;;;16.70;99.90;;;;;;4916598;28;20027;-80
2023/09/01 10:01:35;;;;;;;1.60;1.20;;;16.70;99.90;;;;;;4932378;28;20587;-80
2023/09/01 10:04:07;;;;;;;2.95;1.65;;;16.70;99.90;;;;;;4900033;29;20056;-80
2023/09/01 10:06:34;;;;;;;1.58;1.25;;;16.70;99.90;;;;;;4920045;28;20626;-81
2023/09/01 10:08:59;;;;;;;1.60;1.10;;;16.60;99.90;;;;;;4936536;28;20031;-81
2023/09/01 10:11:25;;;;;;;1.33;1.20;;;16.50;99.90;;;;;;4919688;28;20046;-81
2023/09/01 10:13:50;;;;;;;5.40;1.27;;;16.60;99.90;;;;;;4927153;28;20059;-81
2023/09/01 10:16:16;;;;;;;2.50;0.90;;;16.50;99.90;;;;;;4931293;28;20063;-81
2023/09/01 10:18:43;;;;;;;3.20;1.08;;;16.50;99.90;;;;;;4946398;28;20055;-81
2023/09/01 10:21:09;;;;;;;2.45;0.98;;;16.50;99.90;;;;;;4945907;28;24671;-81
2023/09/01 10:23:42;;;;;;;4.13;1.35;;;16.40;99.90;;;;;;4921686;28;20043;-81
2023/09/01 10:26:17;;;;;;;1.77;1.00;;;16.40;99.90;;;;;;4919748;28;20051;-80
2023/09/01 10:28:55;;;;;;;1.17;1.08;;;16.50;99.90;;;;;;4950529;28;20163;-81
2023/09/01 10:31:25;;;;;;;1.80;1.00;;;16.50;99.90;;;;;;4934040;28;20037;-80
2023/09/01 10:34:12;;;;;;;3.88;1.02;;;16.50;99.90;;;;;;4925362;28;20174;-80
2023/09/01 10:36:38;;;;;;;;;;;16.40;99.90;;;;;;4926111;28;20120;-80
2023/09/01 10:39:21;;;;;;;0.88;0.63;;;16.40;99.90;;;;;;4945336;28;20018;-80
2023/09/01 10:41:57;;;;;;;1.38;0.60;;;16.40;99.90;;;;;;4951538;28;20028;-80
2023/09/01 10:44:26;;;;;;;1.98;1.10;;;16.50;99.90;;;;;;4960512;28;20030;-80
2023/09/01 10:46:51;;;;;;;1.08;0.70;;;16.50;99.90;;;;;;4924550;28;20197;-80
2023/09/01 10:49:17;;;;;;;0.82;0.68;;;16.50;99.90;;;;;;4955635;28;20090;-81
2023/09/01 10:51:43;;;;;;;3.67;1.08;;;16.50;99.90;;;;;;4942114;28;20455;-80
2023/09/01 10:54:15;;;;;;;1.20;1.00;;;16.60;99.90;;;;;;4936800;28;21653;-80
2023/09/01 10:56:55;;;;;;;1.92;1.05;;;16.60;99.90;;;;;;4968664;28;20390;-79
2023/09/01 10:59:37;;;;;;;0.80;0.80;;;16.70;99.90;;;;;;4953115;28;20383;-81
2023/09/01 11:02:20;;;;;;;2.35;0.77;;;16.70;99.90;;;;;;4942701;28;20505;-81
2023/09/01 11:04:46;;;;;;;1.25;1.00;;;16.80;99.90;;;;;;4923870;28;20034;-80
2023/09/01 11:07:13;;;;;;;2.80;0.70;;;16.90;99.90;;;;;;4906317;29;20047;-80
2023/09/01 11:09:42;;;;;;;2.75;1.20;;;17.00;99.90;;;;;;4935487;28;20072;-80
2023/09/01 11:12:10;;;;;;;1.02;0.90;;;17.00;99.90;;;;;;4611254;28;9999829;-80
2023/09/01 11:14:37;;;;;;;1.15;0.73;;;17.00;99.90;;;;;;4920997;28;20031;-79
2023/09/01 11:17:03;;;;;;;1.10;0.98;;;17.10;99.90;;;;;;4949764;28;20055;-80
2023/09/01 11:19:46;;;;;;;1.25;0.65;;;17.20;99.90;;;;;;4936612;28;20043;-80
2023/09/01 11:22:11;;;;;;;1.40;0.90;;;17.20;99.90;;;;;;4945993;28;20054;-81
2023/09/01 11:24:37;;;;;;;0.60;0.60;;;17.30;99.90;;;;;;4956547;28;20489;-79
2023/09/01 11:27:03;;;;;;;0.98;0.75;;;17.30;99.90;;;;;;4941735;28;20039;-79
2023/09/01 11:29:28;;;;;;;0.90;0.90;;;17.50;99.90;;;;;;4923008;28;20043;-80
2023/09/01 11:31:54;;;;;;;2.67;0.80;;;17.60;99.90;;;;;;4937488;28;20039;-80
2023/09/01 11:34:19;;;;;;;0.95;0.80;;;17.80;99.90;;;;;;4940893;28;20065;-80
2023/09/01 11:36:49;;;;;;;0.98;0.45;;;17.80;99.90;;;;;;4943766;28;20031;-79
2023/09/01 11:39:15;;;;;;;1.75;0.75;;;17.70;99.90;;;;;;4935751;28;20110;-80
2023/09/01 11:41:41;;;;;;;1.85;0.60;;;17.80;99.90;;;;;;4926111;28;20449;-80
2023/09/01 11:44:07;;;;;;;1.35;0.70;;;17.80;99.90;;;;;;4960595;28;20035;-80
2023/09/01 11:46:39;;;;;;;2.92;0.98;;;17.80;99.90;;;;;;4951745;28;20039;-80
2023/09/01 11:49:05;;;;;;;3.58;1.20;;;17.90;99.90;;;;;;4946244;28;20567;-81
2023/09/01 11:51:32;;;;;;;2.00;1.38;;;17.90;99.90;;;;;;4955081;28;20117;-80
2023/09/01 11:53:57;;;;;;;1.08;0.98;;;18.00;99.90;;;;;;4950518;28;20046;-81
2023/09/01 11:56:23;;;;;;;1.27;0.80;;;18.00;99.90;;;;;;4944885;28;20022;-80
2023/09/01 11:58:49;;;;;;;1.88;1.00;;;18.00;99.90;;;;;;4947943;28;20035;-80
2023/09/01 12:01:17;;;;;;;2.77;0.80;;;18.00;99.90;;;;;;4949855;28;20509;-80
2023/09/01 12:03:52;;;;;;;0.93;0.60;;;18.20;99.90;;;;;;4938552;28;20074;-79
2023/09/01 12:06:22;;;;;;;0.60;0.52;;;18.10;99.90;;;;;;4934102;28;20133;-80
2023/09/01 12:08:49;;;;;;;1.73;1.25;;;18.10;99.90;;;;;;4939556;28;20046;-80
2023/09/01 12:11:15;;;;;;;3.40;1.30;;;18.20;99.90;;;;;;4936672;28;20042;-80
2023/09/01 12:13:43;;;;;;;1.08;0.90;;;18.30;99.90;;;;;;4949082;28;20028;-80
2023/09/01 12:16:09;;;;;;;2.25;1.30;;;18.40;99.90;;;;;;4924920;28;20037;-80
2023/09/01 12:18:38;;;;;;;2.17;1.50;;;18.40;99.90;;;;;;4935353;28;20543;-80
2023/09/01 12:21:08;;;;;;;2.47;1.10;;;18.50;99.90;;;;;;4948268;28;20034;-80
2023/09/01 12:23:46;;;;;;;3.28;1.33;;;18.60;99.90;;;;;;4949205;28;20047;-80
2023/09/01 12:26:12;;;;;;;2.83;2.00;;;18.80;99.90;;;;;;4939326;28;20030;-80
2023/09/01 12:28:39;;;;;;;2.15;2.05;;;19.00;99.90;;;;;;4936310;28;20399;-78
2023/09/01 12:31:06;;;;;;;2.10;1.83;;;18.90;99.90;;;;;;4908910;28;20067;-79
2023/09/01 12:33:31;;;;;;;3.20;2.90;;;19.10;99.90;;;;;;4914136;28;20403;-79
2023/09/01 12:35:57;;;;;;;3.08;2.88;;;19.20;99.90;;;;;;4935120;29;20039;-79
2023/09/01 12:38:23;;;;;;;4.68;3.05;;;19.10;99.90;;;;;;4920755;28;20095;-78
2023/09/01 12:40:49;;;;;;;3.17;1.38;;;19.30;99.90;;;;;;4943741;28;20032;-80